Arthur City, Texas
Current Conditions -  °F | °C
As of 8:15 AM on Friday 24 Oct 2014 (Local Time) from KHHW Reporting Station
Clear Clear  
Wind Chill: 54°   Ceiling: Unl
Heat Index: 54°   Visibility: 7mi
Dew Point: 51°   Wind: 3mph
Humidity: 90%   Direction: 90°E
Pressure: 30.16"   Gusts: NA
Location:  33.87°N, 95.51°W
Report Text: KHHW 241315Z AUTO 09003KT 7SM CLR 12/11 A3016 RMK AO2 T01210105
Loading
Personal Weather Stations






























Interactive Weather Map
Tropical Storm Tracking
New forecast layout! Learn more

10-Day Weather Forecast

Advertisements
Track Severe Weather on mobile